Time;durP1;ratioP1;P1;durP2;ratioP2;P2;SDS_P1;SDS_P2;PMS_P1;PMS_P2;Temp;Humidity;BMP_temperature;BMP_pressure;BME280_temperature;BME280_humidity;BME280_pressure;Samples;Min_cycle;Max_cycle;Signal;HPM_P1;HPM_P2
2021/06/25 00:01:55;;;;;;;16.07;6.50;;;;;;;20.78;92.70;99320.48;1651668;87;21155;-66
2021/06/25 00:04:22;;;;;;;17.12;6.83;;;;;;;20.76;92.63;99317.13;1651572;87;21070;-66
2021/06/25 00:06:50;;;;;;;16.60;6.83;;;;;;;20.72;92.48;99311.73;1651528;87;20943;-66
2021/06/25 00:09:16;;;;;;;19.15;6.22;;;;;;;20.69;92.22;99312.84;1651576;87;20995;-66
2021/06/25 00:11:43;;;;;;;15.93;5.75;;;;;;;20.67;91.96;99314.77;1651797;87;21063;-66
2021/06/25 00:14:09;;;;;;;12.70;5.97;;;;;;;20.63;91.67;99310.22;1651570;87;21161;-66
2021/06/25 00:16:36;;;;;;;14.58;5.75;;;;;;;20.59;91.46;99306.16;1651789;87;21404;-66
2021/06/25 00:19:02;;;;;;;16.27;6.22;;;;;;;20.57;91.24;99309.94;1651559;87;21082;-66
2021/06/25 00:21:29;;;;;;;17.95;6.60;;;;;;;20.52;90.99;99313.44;1651762;87;20983;-66
2021/06/25 00:23:56;;;;;;;14.95;6.03;;;;;;;20.49;91.16;99322.45;1651688;87;20998;-66
2021/06/25 00:26:22;;;;;;;16.25;5.50;;;;;;;20.45;91.53;99326.80;1651762;87;21190;-66
2021/06/25 00:28:50;;;;;;;16.87;6.62;;;;;;;20.42;91.78;99325.73;1651610;87;20979;-66
2021/06/25 00:31:17;;;;;;;11.85;6.12;;;;;;;20.38;91.86;99327.83;1651767;85;20963;-64
2021/06/25 00:33:43;;;;;;;18.05;6.15;;;;;;;20.35;91.95;99325.41;1651867;86;21003;-66
2021/06/25 00:36:10;;;;;;;14.20;6.85;;;;;;;20.32;92.07;99324.34;1651773;87;20970;-66
2021/06/25 00:38:36;;;;;;;18.77;6.47;;;;;;;20.27;92.45;99310.19;1651882;87;21158;-66
2021/06/25 00:41:03;;;;;;;16.02;7.95;;;;;;;20.24;93.14;99308.28;1651717;87;21023;-66
2021/06/25 00:43:31;;;;;;;19.57;8.75;;;;;;;20.21;94.01;99309.38;1651788;87;20976;-65
2021/06/25 00:45:58;;;;;;;18.65;6.78;;;;;;;20.21;94.91;99315.14;1651843;87;20971;-65
2021/06/25 00:48:24;;;;;;;29.07;6.30;;;;;;;20.20;95.36;99312.98;1651889;86;21543;-65
2021/06/25 00:50:51;;;;;;;16.42;7.12;;;;;;;20.18;95.66;99309.63;1651955;87;21965;-65
2021/06/25 00:53:17;;;;;;;15.72;6.78;;;;;;;20.17;95.95;99311.94;1651815;87;20986;-65
2021/06/25 00:55:44;;;;;;;17.20;6.42;;;;;;;20.17;96.21;99309.30;1625375;87;20986;-65
2021/06/25 00:58:16;;;;;;;18.25;5.92;;;;;;;20.16;95.98;99298.38;1651822;85;20980;-66
2021/06/25 01:00:43;;;;;;;14.85;5.92;;;;;;;20.15;95.81;99294.06;1651876;87;21079;-65
2021/06/25 01:03:13;;;;;;;13.70;6.00;;;;;;;20.13;95.61;99300.44;1651772;87;21847;-65
2021/06/25 01:05:39;;;;;;;18.17;6.87;;;;;;;20.13;95.52;99296.47;1651938;86;20971;-66
2021/06/25 01:08:10;;;;;;;16.67;6.40;;;;;;;20.10;95.86;99302.84;1652032;87;21051;-65
2021/06/25 01:10:38;;;;;;;16.82;7.08;;;;;;;20.06;96.49;99295.30;1652076;86;21003;-65
2021/06/25 01:13:06;;;;;;;19.35;7.62;;;;;;;20.03;97.30;99295.06;1651876;87;21011;-65
2021/06/25 01:15:32;;;;;;;13.83;7.12;;;;;;;20.03;97.52;99304.30;1651745;87;21160;-65
2021/06/25 01:18:00;;;;;;;11.90;6.35;;;;;;;20.05;97.85;99304.18;1651797;87;20947;-65
2021/06/25 01:20:29;;;;;;;29.60;8.18;;;;;;;20.04;97.78;99302.50;1651933;87;21416;-65
2021/06/25 01:22:56;;;;;;;15.40;7.03;;;;;;;20.04;97.91;99303.83;1651788;87;21063;-65
2021/06/25 01:25:26;;;;;;;14.47;5.80;;;;;;;20.05;97.62;99308.14;1625458;87;21546;-65
2021/06/25 01:27:56;;;;;;;13.83;5.10;;;;;;;20.03;96.98;99306.11;1651604;87;21798;-65
2021/06/25 01:30:28;;;;;;;14.60;6.20;;;;;;;20.02;96.77;99303.95;1651655;85;21066;-66
2021/06/25 01:32:57;;;;;;;13.38;6.40;;;;;;;19.99;96.70;99290.16;1651697;86;21501;-66
2021/06/25 01:35:23;;;;;;;17.75;7.42;;;;;;;19.97;96.62;99300.87;1652077;85;21006;-66
2021/06/25 01:37:50;;;;;;;11.10;5.28;;;;;;;19.92;97.03;99298.61;1652109;87;21488;-66
2021/06/25 01:40:18;;;;;;;16.95;5.83;;;;;;;19.89;97.02;99292.74;1651828;87;21176;-66
2021/06/25 01:42:47;;;;;;;17.12;6.53;;;;;;;19.85;96.93;99296.59;1651762;86;21003;-67
2021/06/25 01:45:21;;;;;;;14.80;7.12;;;;;;;19.81;96.74;99297.31;1651794;87;21066;-67
2021/06/25 01:47:48;;;;;;;18.75;6.75;;;;;;;19.78;96.73;99296.28;1651938;85;20986;-65
2021/06/25 01:50:19;;;;;;;13.70;6.12;;;;;;;19.76;96.51;99300.84;1651947;87;21494;-65
2021/06/25 01:52:56;;;;;;;15.43;5.78;;;;;;;19.73;96.01;99316.92;1651569;86;21861;-65
2021/06/25 01:55:23;;;;;;;13.93;6.50;;;;;;;19.71;95.58;99312.73;1651802;87;21066;-66
2021/06/25 01:57:49;;;;;;;21.55;7.33;;;;;;;19.66;95.62;99318.38;1651863;85;20959;-66
2021/06/25 02:00:17;;;;;;;21.52;7.03;;;;;;;19.63;95.59;99310.70;1651809;87;20995;-66
2021/06/25 02:02:44;;;;;;;15.20;6.42;;;;;;;19.61;95.72;99329.77;1651812;87;21022;-66
2021/06/25 02:05:13;;;;;;;20.40;6.95;;;;;;;19.62;95.87;99312.98;1651910;87;21817;-66
2021/06/25 02:07:39;;;;;;;14.40;6.80;;;;;;;19.63;96.15;99321.73;1651646;87;20947;-66
2021/06/25 02:10:09;;;;;;;21.90;9.38;;;;;;;19.64;96.04;99307.58;1651821;87;21113;-65
2021/06/25 02:12:37;;;;;;;19.07;6.30;;;;;;;19.62;96.07;99315.62;1651986;87;21011;-65
2021/06/25 02:15:07;;;;;;;13.58;5.92;;;;;;;19.62;96.25;99335.41;1651728;86;21071;-65
2021/06/25 02:17:34;;;;;;;22.20;6.78;;;;;;;19.62;95.44;99331.45;1652113;87;21120;-65
2021/06/25 02:20:04;;;;;;;11.50;5.83;;;;;;;19.63;94.94;99325.21;1651929;86;21618;-66
2021/06/25 02:22:31;;;;;;;16.32;5.85;;;;;;;19.64;94.43;99318.13;1651955;87;21022;-65
2021/06/25 02:24:57;;;;;;;14.25;5.70;;;;;;;19.65;94.15;99316.69;1651954;87;21451;-65
2021/06/25 02:27:23;;;;;;;13.13;5.78;;;;;;;19.69;94.04;99319.92;1651882;87;21566;-66
2021/06/25 02:29:50;;;;;;;15.85;7.05;;;;;;;19.75;93.73;99319.44;1651721;85;21821;-65
2021/06/25 02:32:16;;;;;;;14.90;6.40;;;;;;;19.80;93.41;99313.28;1651856;87;20940;-66
2021/06/25 02:34:43;;;;;;;16.70;6.42;;;;;;;19.85;93.07;99303.19;1651770;87;21018;-65
2021/06/25 02:37:10;;;;;;;15.88;6.50;;;;;;;19.92;92.88;99302.57;1651903;86;21447;-66
2021/06/25 02:39:38;;;;;;;12.25;6.47;;;;;;;20.06;92.79;99299.26;1651910;87;21491;-65
2021/06/25 02:42:06;;;;;;;15.93;6.67;;;;;;;20.22;92.53;99293.05;1651709;87;21207;-66
2021/06/25 02:44:32;;;;;;;16.40;5.17;;;;;;;20.44;91.96;99294.75;1651948;87;21062;-66
2021/06/25 02:46:58;;;;;;;15.20;5.15;;;;;;;20.65;90.85;99295.56;1651693;87;20962;-65
2021/06/25 02:49:25;;;;;;;11.57;5.28;;;;;;;20.87;89.49;99290.59;1651683;86;20979;-66
2021/06/25 02:51:51;;;;;;;13.28;5.80;;;;;;;21.10;88.20;99286.78;1651815;86;20971;-65
2021/06/25 02:54:18;;;;;;;11.60;5.03;;;;;;;21.35;86.95;99282.01;1651978;86;21887;-66
2021/06/25 02:56:44;;;;;;;13.35;5.72;;;;;;;21.66;85.67;99267.20;1651886;85;20975;-66
2021/06/25 02:59:11;;;;;;;15.18;6.65;;;;;;;21.99;84.04;99269.91;1651896;87;21314;-66
2021/06/25 03:01:37;;;;;;;13.83;5.40;;;;;;;22.28;82.30;99261.13;1651694;87;20994;-66
2021/06/25 03:04:04;;;;;;;16.97;5.70;;;;;;;22.44;80.56;99261.84;1651699;85;21031;-66
2021/06/25 03:06:31;;;;;;;12.65;6.03;;;;;;;22.49;79.47;99261.77;1651945;86;21812;-66
2021/06/25 03:08:58;;;;;;;15.80;5.83;;;;;;;22.56;78.81;99263.36;1651985;87;20963;-66
2021/06/25 03:11:24;;;;;;;18.02;6.10;;;;;;;22.72;78.45;99266.72;1651766;87;21015;-66
2021/06/25 03:13:51;;;;;;;17.87;5.78;;;;;;;23.01;77.16;99260.31;1651690;87;20979;-66
2021/06/25 03:16:18;;;;;;;15.00;5.80;;;;;;;23.33;75.75;99267.00;1651791;86;20960;-66
2021/06/25 03:18:45;;;;;;;17.77;5.87;;;;;;;23.59;75.04;99260.47;1651874;86;21864;-66
2021/06/25 03:21:12;;;;;;;11.85;5.65;;;;;;;23.88;73.41;99258.43;1651623;87;21038;-67
2021/06/25 03:23:38;;;;;;;14.30;6.33;;;;;;;24.17;72.26;99259.50;1604337;87;21011;-66
2021/06/25 03:26:05;;;;;;;17.90;6.65;;;;;;;24.54;71.09;99256.61;1651755;87;20987;-67
2021/06/25 03:28:31;;;;;;;14.65;6.15;;;;;;;24.98;69.49;99253.34;1651919;85;21573;-67
2021/06/25 03:30:58;;;;;;;10.45;6.75;;;;;;;25.43;67.81;99249.98;1651516;85;21034;-66
2021/06/25 03:33:24;;;;;;;15.05;5.70;;;;;;;25.90;66.00;99248.41;1651718;86;21055;-67
2021/06/25 03:35:51;;;;;;;12.85;6.20;;;;;;;26.34;64.62;99240.91;1651913;85;20983;-67
2021/06/25 03:38:17;;;;;;;10.90;7.30;;;;;;;26.81;63.21;99236.08;1651909;87;21015;-67
2021/06/25 03:40:44;;;;;;;14.45;7.00;;;;;;;27.26;61.40;99235.91;1651848;87;21019;-66
2021/06/25 03:43:10;;;;;;;13.50;6.97;;;;;;;27.61;60.03;99236.70;1651930;86;21123;-66
2021/06/25 03:45:37;;;;;;;16.35;6.85;;;;;;;27.95;59.17;99233.61;1651700;87;21016;-66
2021/06/25 03:48:05;;;;;;;16.02;5.92;;;;;;;28.29;57.76;99226.46;1651925;86;20971;-66
2021/06/25 03:50:33;;;;;;;19.07;5.33;;;;;;;28.61;56.81;99226.60;1651944;87;21030;-66
2021/06/25 03:53:00;;;;;;;12.55;5.60;;;;;;;28.88;56.00;99211.77;1651897;87;21006;-66
2021/06/25 03:55:26;;;;;;;14.60;5.40;;;;;;;29.13;54.94;99213.11;1651823;87;21161;-66
2021/06/25 03:57:52;;;;;;;18.50;6.20;;;;;;;29.37;54.34;99224.50;1651788;85;21014;-66
2021/06/25 04:00:20;;;;;;;10.75;5.47;;;;;;;29.65;53.78;99228.60;1651888;86;20959;-65
2021/06/25 04:02:46;;;;;;;17.30;6.42;;;;;;;30.00;52.63;99224.19;1651892;87;21022;-65
2021/06/25 04:05:14;;;;;;;10.40;5.50;;;;;;;30.36;51.31;99217.36;1651890;87;21078;-65
2021/06/25 04:07:42;;;;;;;14.33;5.05;;;;;;;30.70;50.30;99218.72;1651864;87;21792;-64
2021/06/25 04:10:10;;;;;;;16.00;5.25;;;;;;;31.03;49.43;99210.80;1651744;87;20944;-66
2021/06/25 04:12:37;;;;;;;16.87;5.70;;;;;;;31.34;48.53;99218.89;1651892;87;20971;-66
2021/06/25 04:15:06;;;;;;;14.20;5.22;;;;;;;31.66;47.81;99220.83;1652071;87;21543;-65
2021/06/25 04:17:32;;;;;;;10.32;4.80;;;;;;;31.93;46.79;99223.55;1651973;87;21038;-65
2021/06/25 04:19:59;;;;;;;19.27;5.45;;;;;;;32.17;45.90;99229.10;1651875;86;21057;-65
2021/06/25 04:22:25;;;;;;;15.18;5.72;;;;;;;32.35;45.12;99230.38;1652031;86;20999;-65
2021/06/25 04:24:52;;;;;;;15.88;5.20;;;;;;;32.50;44.75;99221.03;1651848;87;21062;-65
2021/06/25 04:27:18;;;;;;;14.15;5.60;;;;;;;32.69;44.49;99223.36;1651948;85;21455;-65
2021/06/25 04:29:46;;;;;;;11.20;5.53;;;;;;;32.97;43.82;99223.09;1651818;86;20976;-66
2021/06/25 04:32:15;;;;;;;13.62;5.60;;;;;;;33.19;43.40;99218.19;1651856;85;21940;-66
2021/06/25 04:34:42;;;;;;;14.50;5.45;;;;;;;33.50;42.14;99220.12;1652025;87;21543;-65
2021/06/25 04:37:08;;;;;;;16.00;6.78;;;;;;;33.78;41.36;99230.00;1651928;85;21015;-65
2021/06/25 04:39:35;;;;;;;13.03;5.30;;;;;;;34.03;40.90;99239.47;1651786;86;21043;-65
2021/06/25 04:42:04;;;;;;;25.68;7.40;;;;;;;34.25;40.68;99245.81;1651791;85;21085;-66
2021/06/25 04:44:30;;;;;;;34.15;12.43;;;;;;;34.50;40.24;99254.75;1651791;87;22081;-65
2021/06/25 04:46:56;;;;;;;13.18;6.12;;;;;;;34.75;39.86;99248.77;1651728;86;20963;-66
2021/06/25 04:49:23;;;;;;;17.62;5.70;;;;;;;34.91;39.72;99247.37;1651779;85;20999;-66
2021/06/25 04:51:50;;;;;;;17.85;6.70;;;;;;;35.13;39.05;99267.47;1651859;86;21016;-66
2021/06/25 04:54:17;;;;;;;28.00;7.22;;;;;;;35.37;38.40;99252.75;1651737;87;21447;-67
2021/06/25 04:56:43;;;;;;;21.87;7.22;;;;;;;35.45;38.04;99261.34;1651977;85;21803;-66
2021/06/25 04:59:09;;;;;;;23.62;6.97;;;;;;;35.32;38.43;99269.65;1651782;86;20998;-65
2021/06/25 05:01:36;;;;;;;20.80;7.53;;;;;;;35.26;38.40;99272.39;1651748;85;21010;-66
2021/06/25 05:04:06;;;;;;;17.65;5.90;;;;;;;35.29;38.55;99262.52;1652456;85;21107;-65
2021/06/25 05:06:33;;;;;;;18.95;6.97;;;;;;;35.39;38.33;99266.83;1652251;86;21082;-66
2021/06/25 05:09:01;;;;;;;28.07;6.85;;;;;;;35.47;38.19;99263.82;1651952;87;21243;-67
2021/06/25 05:11:28;;;;;;;20.43;5.87;;;;;;;35.52;38.32;99263.97;1651935;87;21003;-66
2021/06/25 05:13:55;;;;;;;32.73;7.40;;;;;;;35.72;37.79;99263.14;1651894;86;21078;-65
2021/06/25 05:16:21;;;;;;;14.13;6.28;;;;;;;35.74;37.47;99276.45;1650145;86;21017;-67
2021/06/25 05:18:49;;;;;;;25.90;6.75;;;;;;;35.73;37.26;99279.68;1626983;85;20947;-66
2021/06/25 05:21:16;;;;;;;19.77;7.50;;;;;;;35.63;37.66;99286.16;1632616;86;21164;-66
2021/06/25 05:23:43;;;;;;;19.00;6.85;;;;;;;35.69;37.56;99292.54;1644334;86;21077;-66
2021/06/25 05:26:09;;;;;;;28.57;8.05;;;;;;;35.81;37.25;99288.83;1625173;88;21002;-66
2021/06/25 05:28:36;;;;;;;17.90;6.70;;;;;;;36.07;36.79;99292.19;1626990;86;21007;-67
2021/06/25 05:31:04;;;;;;;20.75;7.03;;;;;;;36.32;36.25;99283.90;1625021;87;21090;-66
2021/06/25 05:33:31;;;;;;;21.05;6.33;;;;;;;36.46;35.81;99289.37;1632711;86;21224;-66
2021/06/25 05:35:57;;;;;;;24.05;8.18;;;;;;;36.47;35.91;99286.43;1652223;86;21048;-66
2021/06/25 05:38:24;;;;;;;18.70;6.65;;;;;;;36.57;36.01;99285.85;1653399;85;21513;-64
2021/06/25 05:40:52;;;;;;;22.20;6.17;;;;;;;36.77;35.84;99285.51;1628854;85;21012;-65
2021/06/25 05:43:20;;;;;;;36.42;7.62;;;;;;;37.05;34.98;99281.48;1624969;88;21015;-67
2021/06/25 05:45:49;;;;;;;15.78;6.53;;;;;;;37.20;34.27;99290.48;1624824;87;20947;-67
2021/06/25 05:48:16;;;;;;;14.83;6.67;;;;;;;37.08;34.44;99291.86;1627109;86;21105;-66
2021/06/25 05:50:46;;;;;;;21.23;7.25;;;;;;;36.92;34.64;99299.38;1652514;86;21114;-66
2021/06/25 05:53:14;;;;;;;26.37;6.22;;;;;;;36.82;34.11;99299.97;1612332;86;21066;-64
2021/06/25 05:55:43;;;;;;;23.85;6.83;;;;;;;36.72;34.25;99297.58;1653173;86;21011;-64
2021/06/25 05:58:11;;;;;;;20.27;10.50;;;;;;;36.75;34.36;99292.52;1651551;85;21162;-65
2021/06/25 06:00:38;;;;;;;34.05;8.18;;;;;;;36.85;34.26;99299.50;1630932;86;20971;-65
2021/06/25 06:03:05;;;;;;;24.15;6.42;;;;;;;36.98;34.56;99294.34;1634392;86;21030;-64
2021/06/25 06:05:31;;;;;;;17.27;6.72;;;;;;;37.00;34.52;99292.75;1650508;87;21101;-65
2021/06/25 06:07:58;;;;;;;23.40;6.85;;;;;;;36.89;34.09;99298.50;1650856;85;21581;-65
2021/06/25 06:10:24;;;;;;;23.75;7.50;;;;;;;36.72;34.49;99288.92;1652862;86;21707;-64
2021/06/25 06:12:50;;;;;;;19.73;5.97;;;;;;;36.55;34.65;99296.09;1651299;86;21427;-64
2021/06/25 06:15:19;;;;;;;18.50;5.67;;;;;;;36.32;34.81;99298.27;1646122;86;21495;-62
2021/06/25 06:17:49;;;;;;;25.10;6.15;;;;;;;36.05;35.12;99288.36;1652495;85;21530;-64
2021/06/25 06:20:21;;;;;;;25.55;7.10;;;;;;;35.76;35.75;99291.43;1652459;85;20994;-65
2021/06/25 06:31:41;;;;;;;15.93;6.10;;;;;;;34.72;38.01;99296.50;1651055;84;20983;-64
2021/06/25 06:34:25;;;;;;;24.63;6.20;;;;;;;34.54;38.34;99294.60;1648387;86;21471;-65
2021/06/25 06:36:52;;;;;;;24.90;5.37;;;;;;;34.35;38.80;99293.44;1647298;85;21185;-64
2021/06/25 06:39:21;;;;;;;28.55;7.03;;;;;;;34.14;38.93;99294.62;1647228;87;20999;-64
2021/06/25 06:41:48;;;;;;;22.75;6.17;;;;;;;33.84;39.15;99301.98;1647893;87;21011;-64
2021/06/25 06:44:15;;;;;;;17.98;6.12;;;;;;;33.56;39.90;99296.64;1647852;87;21054;-64
2021/06/25 06:46:42;;;;;;;15.85;5.47;;;;;;;33.30;40.39;99307.03;1647921;85;20995;-63
2021/06/25 06:49:08;;;;;;;20.57;6.37;;;;;;;33.10;40.91;99304.38;1650496;85;21203;-66
2021/06/25 06:51:35;;;;;;;14.95;5.97;;;;;;;32.93;41.42;99306.72;1607627;88;21572;-65
2021/06/25 06:54:02;;;;;;;33.73;7.25;;;;;;;32.83;41.94;99295.54;1607595;89;20982;-65
2021/06/25 06:56:30;;;;;;;20.85;5.60;;;;;;;32.78;42.64;99306.11;1607486;89;21115;-67
2021/06/25 06:58:59;;;;;;;16.05;6.12;;;;;;;32.69;42.94;99308.19;1607619;89;21052;-66
2021/06/25 07:01:25;;;;;;;17.25;5.00;;;;;;;32.51;43.11;99301.28;1607589;88;21184;-66
2021/06/25 07:03:52;;;;;;;23.87;5.97;;;;;;;32.34;43.41;99303.57;1607577;88;21126;-66
2021/06/25 07:06:18;;;;;;;18.52;5.50;;;;;;;32.11;44.40;99307.16;1607359;88;21025;-65
2021/06/25 07:08:45;;;;;;;20.90;5.87;;;;;;;31.96;44.56;99311.91;1607574;89;21033;-66
2021/06/25 07:11:11;;;;;;;24.37;5.75;;;;;;;31.88;45.23;99306.70;1607639;89;21509;-65
2021/06/25 07:13:39;;;;;;;25.82;5.40;;;;;;;31.83;44.78;99305.45;1607278;88;21155;-64
2021/06/25 07:16:06;;;;;;;17.60;5.35;;;;;;;31.77;44.92;99307.64;1607507;88;21037;-64
2021/06/25 07:18:32;;;;;;;13.38;5.05;;;;;;;31.70;45.42;99301.41;1607580;88;21032;-64
2021/06/25 07:20:59;;;;;;;13.38;4.20;;;;;;;31.66;45.33;99296.12;1607669;89;21429;-65
2021/06/25 07:23:25;;;;;;;14.00;4.80;;;;;;;31.63;44.21;99293.80;1607616;89;21052;-66
2021/06/25 07:25:52;;;;;;;13.72;4.47;;;;;;;31.61;44.42;99293.17;1607531;89;21129;-65
2021/06/25 07:28:18;;;;;;;15.30;4.45;;;;;;;31.58;43.75;99294.91;1589359;89;20977;-65
2021/06/25 07:30:45;;;;;;;18.92;4.70;;;;;;;31.52;44.16;99297.09;1607552;88;21036;-64
2021/06/25 07:33:11;;;;;;;16.48;4.78;;;;;;;31.50;43.36;99293.77;1607476;88;20981;-64
2021/06/25 07:35:38;;;;;;;19.37;5.20;;;;;;;31.48;43.99;99292.63;1607776;89;20957;-65
2021/06/25 07:38:05;;;;;;;17.45;4.42;;;;;;;31.50;44.74;99295.95;1607701;89;21837;-65
2021/06/25 07:40:31;;;;;;;12.50;3.80;;;;;;;31.53;44.18;99288.52;1607455;88;21009;-65
2021/06/25 07:42:58;;;;;;;14.40;4.78;;;;;;;31.50;43.42;99294.60;1607923;88;20988;-66
2021/06/25 07:45:24;;;;;;;11.65;3.52;;;;;;;31.47;43.27;99291.48;1607744;88;21049;-65
2021/06/25 07:47:51;;;;;;;16.85;4.17;;;;;;;31.48;43.15;99287.77;1607566;88;21032;-65
2021/06/25 07:50:18;;;;;;;17.15;4.47;;;;;;;31.52;43.49;99290.38;1607590;89;21328;-65
2021/06/25 07:52:45;;;;;;;15.98;4.42;;;;;;;31.57;43.15;99295.14;1607462;89;21561;-68
2021/06/25 07:55:13;;;;;;;17.37;5.00;;;;;;;31.58;43.31;99301.64;1607333;88;20992;-66
2021/06/25 07:57:40;;;;;;;21.95;4.72;;;;;;;31.62;44.13;99308.27;1607515;89;21033;-65
2021/06/25 08:00:09;;;;;;;17.30;4.28;;;;;;;31.61;44.53;99309.81;1607832;88;21085;-64
2021/06/25 08:02:39;;;;;;;15.85;4.67;;;;;;;31.56;44.86;99314.48;1607852;88;21083;-65
2021/06/25 08:05:07;;;;;;;11.73;3.83;;;;;;;31.54;44.88;99313.84;1607709;89;21089;-64
2021/06/25 08:07:34;;;;;;;17.10;5.00;;;;;;;31.57;44.62;99318.00;1611368;88;21029;-63
2021/06/25 08:10:02;;;;;;;18.37;4.20;;;;;;;31.61;44.58;99321.40;1653818;86;21039;-65
2021/06/25 08:12:30;;;;;;;12.28;3.92;;;;;;;31.70;42.86;99324.27;1653100;86;21093;-66
2021/06/25 08:14:57;;;;;;;13.53;3.52;;;;;;;31.81;42.53;99326.34;1653628;86;21122;-66
2021/06/25 08:17:27;;;;;;;15.35;3.98;;;;;;;31.99;42.03;99316.34;1654006;85;20995;-65
2021/06/25 08:19:54;;;;;;;16.30;4.00;;;;;;;32.28;42.05;99329.95;1624351;88;21066;-66
2021/06/25 08:22:21;;;;;;;10.82;3.87;;;;;;;32.56;42.13;99320.85;1623147;88;21153;-66
2021/06/25 08:24:47;;;;;;;16.70;4.90;;;;;;;32.75;40.94;99326.23;1621313;86;21070;-66
2021/06/25 08:27:31;;;;;;;14.10;3.42;;;;;;;32.95;40.70;99324.02;1616094;87;21125;-67
2021/06/25 08:30:00;;;;;;;15.38;4.40;;;;;;;33.16;40.01;99324.58;1623514;88;21086;-65
2021/06/25 08:32:26;;;;;;;22.95;4.40;;;;;;;33.41;39.90;99323.34;1618146;88;21007;-64
2021/06/25 08:34:52;;;;;;;18.65;4.08;;;;;;;33.60;39.66;99312.15;1626492;88;21195;-67
2021/06/25 08:37:19;;;;;;;21.00;4.08;;;;;;;33.67;39.37;99312.12;1626648;88;21450;-65
2021/06/25 08:39:45;;;;;;;18.12;4.45;;;;;;;33.64;39.74;99306.64;1626732;88;22041;-65
2021/06/25 08:42:14;;;;;;;14.25;3.98;;;;;;;33.54;39.73;99301.73;1625798;88;21518;-66
2021/06/25 08:44:41;;;;;;;14.85;4.35;;;;;;;33.52;39.67;99297.59;1633948;86;21479;-65
2021/06/25 08:47:08;;;;;;;14.35;3.85;;;;;;;33.62;39.90;99300.63;1654221;86;21007;-66
2021/06/25 08:49:37;;;;;;;19.40;3.87;;;;;;;33.74;37.90;99307.53;1647061;86;21034;-65
2021/06/25 08:52:05;;;;;;;14.07;4.15;;;;;;;33.80;38.53;99304.80;1655083;85;21836;-66
2021/06/25 08:54:34;;;;;;;14.75;5.85;;;;;;;33.85;38.29;99305.50;1655044;86;20994;-65
2021/06/25 08:57:04;;;;;;;19.90;4.87;;;;;;;33.86;38.48;99301.77;1655125;85;21018;-65
2021/06/25 08:59:31;;;;;;;15.70;3.83;;;;;;;33.87;38.61;99303.42;1654970;85;20971;-65
2021/06/25 09:01:59;;;;;;;15.83;4.12;;;;;;;33.83;38.80;99300.33;1660663;86;21425;-65
2021/06/25 09:04:37;;;;;;;19.90;4.33;;;;;;;33.82;39.38;99299.19;1660268;86;21820;-64
2021/06/25 09:07:09;;;;;;;10.05;3.92;;;;;;;33.84;39.63;99304.67;1660294;85;21061;-63
2021/06/25 09:09:45;;;;;;;14.30;4.25;;;;;;;33.88;38.89;99299.67;1660415;85;21045;-64
2021/06/25 09:12:24;;;;;;;15.43;3.83;;;;;;;33.97;40.02;99302.43;1659509;86;20976;-64
2021/06/25 09:15:05;;;;;;;15.72;4.17;;;;;;;34.01;39.28;99297.39;1660298;86;20946;-65
2021/06/25 09:17:35;;;;;;;14.83;3.95;;;;;;;34.01;40.16;99295.52;1657063;86;23098;-64
2021/06/25 09:20:05;;;;;;;16.90;4.80;;;;;;;34.01;39.88;99298.22;1656783;86;21438;-64
2021/06/25 09:22:32;;;;;;;14.38;4.60;;;;;;;34.02;39.77;99295.00;1660555;85;20986;-65
2021/06/25 09:25:09;;;;;;;19.42;4.42;;;;;;;34.05;39.66;99291.87;1660263;85;21014;-66
2021/06/25 09:27:36;;;;;;;17.95;4.60;;;;;;;34.07;39.52;99289.26;1660342;85;21026;-66
2021/06/25 09:30:09;;;;;;;12.13;4.45;;;;;;;34.02;39.76;99286.91;1660523;86;21055;-66
2021/06/25 09:32:37;;;;;;;16.37;4.00;;;;;;;33.97;39.55;99289.46;1654577;86;21089;-65
2021/06/25 09:35:15;;;;;;;13.58;4.37;;;;;;;33.94;39.73;99279.92;1626316;86;21522;-65
2021/06/25 09:37:44;;;;;;;13.83;4.37;;;;;;;33.87;39.99;99269.17;1625872;86;20971;-66
2021/06/25 09:40:13;;;;;;;10.38;3.60;;;;;;;33.80;39.18;99272.42;1625657;88;21293;-66
2021/06/25 09:42:42;;;;;;;16.52;3.98;;;;;;;33.70;40.11;99270.72;1626182;88;21176;-65
2021/06/25 09:45:16;;;;;;;17.70;3.58;;;;;;;33.61;40.64;99258.52;1626231;88;20975;-65
2021/06/25 09:47:47;;;;;;;12.55;4.37;;;;;;;33.58;40.55;99254.08;1626223;88;21097;-65
2021/06/25 09:50:21;;;;;;;14.70;4.03;;;;;;;33.52;40.48;99249.88;1626037;86;21167;-65
2021/06/25 09:53:04;;;;;;;10.78;3.45;;;;;;;33.49;40.28;99250.83;1626648;86;20986;-65
2021/06/25 09:58:37;;;;;;;11.73;3.55;;;;;;;33.26;39.63;99254.06;1631807;85;21046;-66
2021/06/25 10:01:24;;;;;;;10.53;3.77;;;;;;;33.16;39.08;99258.55;1650231;86;21010;-65
2021/06/25 10:03:56;;;;;;;11.85;3.50;;;;;;;33.08;38.94;99258.78;1652330;86;20989;-66
2021/06/25 10:06:25;;;;;;;9.85;3.83;;;;;;;33.03;39.74;99245.11;1653162;85;21535;-67
2021/06/25 10:08:53;;;;;;;11.35;4.00;;;;;;;33.02;39.91;99239.42;1652040;85;21191;-66
2021/06/25 10:11:22;;;;;;;9.88;3.22;;;;;;;33.01;38.78;99236.94;1651994;85;21112;-67
2021/06/25 10:13:51;;;;;;;7.60;2.17;;;;;;;33.00;37.02;99235.28;1651711;86;21109;-66
2021/06/25 10:16:18;;;;;;;10.13;2.85;;;;;;;32.99;32.89;99234.97;1652483;86;20984;-66
2021/06/25 10:18:50;;;;;;;6.70;2.62;;;;;;;32.97;33.35;99232.52;1653162;85;21499;-65
2021/06/25 10:21:22;;;;;;;5.92;1.85;;;;;;;32.97;31.69;99224.44;1652894;85;21139;-67
2021/06/25 10:23:52;;;;;;;10.00;2.20;;;;;;;32.98;31.46;99223.37;1651906;86;21026;-65
2021/06/25 10:26:20;;;;;;;6.30;2.27;;;;;;;33.00;31.58;99218.59;1653001;85;20978;-65
2021/06/25 10:28:48;;;;;;;9.85;2.00;;;;;;;33.02;31.44;99219.21;1652970;86;21841;-65
2021/06/25 10:31:16;;;;;;;5.03;2.42;;;;;;;33.06;30.78;99218.27;1653126;85;21011;-66
2021/06/25 10:33:43;;;;;;;6.75;2.00;;;;;;;33.08;30.56;99219.70;1652924;85;21121;-65
2021/06/25 10:36:15;;;;;;;5.87;2.00;;;;;;;33.07;30.49;99226.14;1625997;86;20975;-66
2021/06/25 10:38:43;;;;;;;5.87;2.40;;;;;;;33.09;30.16;99233.48;1653184;85;20974;-68
2021/06/25 10:41:13;;;;;;;7.00;2.60;;;;;;;33.12;31.68;99222.80;1653253;86;21001;-66
2021/06/25 10:43:51;;;;;;;8.85;2.45;;;;;;;33.18;29.84;99224.09;1653136;86;20967;-66
2021/06/25 10:46:33;;;;;;;8.33;2.00;;;;;;;33.24;29.24;99232.38;1653011;85;21171;-66
2021/06/25 10:49:10;;;;;;;7.33;2.02;;;;;;;33.27;29.21;99233.33;1605755;86;20993;-66
2021/06/25 10:51:39;;;;;;;6.00;1.80;;;;;;;33.24;29.35;99230.51;1626806;86;21023;-66
2021/06/25 10:54:17;;;;;;;7.83;2.22;;;;;;;33.25;29.76;99236.72;1653228;85;21038;-67
2021/06/25 10:56:59;;;;;;;7.50;1.72;;;;;;;33.25;29.13;99240.25;1632501;85;21243;-66
2021/06/25 10:59:28;;;;;;;11.08;2.25;;;;;;;33.28;29.57;99238.50;1625362;88;21132;-68
2021/06/25 11:02:04;;;;;;;5.85;1.98;;;;;;;33.33;29.69;99240.04;1644013;87;21067;-66
2021/06/25 11:04:46;;;;;;;4.97;2.35;;;;;;;33.42;30.16;99238.73;1641788;86;20967;-68
2021/06/25 11:07:21;;;;;;;5.62;2.15;;;;;;;33.49;29.35;99236.00;1625174;87;21102;-65
2021/06/25 11:09:56;;;;;;;4.17;1.77;;;;;;;33.53;29.03;99235.36;1641877;85;20987;-65
2021/06/25 11:12:35;;;;;;;4.67;1.95;;;;;;;33.60;28.36;99230.42;1651762;85;21871;-66
2021/06/25 11:15:11;;;;;;;4.58;1.95;;;;;;;33.68;29.00;99224.77;1651620;87;21056;-65
2021/06/25 11:17:55;;;;;;;4.80;1.75;;;;;;;33.79;29.82;99228.96;1651727;87;21421;-65
2021/06/25 11:20:33;;;;;;;4.95;1.85;;;;;;;33.91;28.95;99218.83;1651884;85;21422;-65
2021/06/25 11:23:12;;;;;;;4.70;2.08;;;;;;;34.02;30.28;99224.31;1651251;85;21010;-64
2021/06/25 11:25:55;;;;;;;7.95;2.15;;;;;;;34.13;29.38;99220.09;1650900;85;21735;-65
2021/06/25 11:28:39;;;;;;;9.55;2.27;;;;;;;34.20;28.69;99215.44;1651723;85;21077;-64
2021/06/25 11:31:27;;;;;;;7.12;2.15;;;;;;;34.25;29.26;99208.85;1651638;87;20978;-65
2021/06/25 11:34:01;;;;;;;5.22;2.12;;;;;;;34.31;29.84;99208.00;1654558;85;21057;-64
2021/06/25 11:36:52;;;;;;;2.45;1.90;;;;;;;34.32;28.72;99216.41;1656743;85;21054;-64
2021/06/25 11:39:35;;;;;;;9.75;2.30;;;;;;;34.31;29.05;99214.75;1656813;86;21427;-64
2021/06/25 11:42:04;;;;;;;;;;;;;;;34.34;28.46;99221.58;1658372;85;20954;-65
2021/06/25 11:44:39;;;;;;;5.85;2.30;;;;;;;34.37;28.89;99214.39;1656692;85;20178;-64
2021/06/25 11:47:18;;;;;;;4.35;2.65;;;;;;;34.43;30.19;99214.83;1656769;86;21081;-65